createdAt,value
2022-09-29T00:00:24.854Z,0.00
2022-09-29T00:01:24.923Z,0.00
2022-09-29T00:02:24.895Z,0.00
2022-09-29T00:03:24.963Z,0.00
2022-09-29T00:04:24.939Z,0.00
2022-09-29T00:05:24.964Z,0.00
2022-09-29T00:06:24.987Z,0.00
2022-09-29T00:07:25.007Z,0.00
2022-09-29T00:08:25.026Z,0.00
2022-09-29T00:09:25.048Z,0.00
2022-09-29T00:10:25.071Z,0.00
2022-09-29T00:11:25.096Z,0.00
2022-09-29T00:12:25.117Z,0.00
2022-09-29T00:13:25.144Z,0.00
2022-09-29T00:14:25.169Z,0.00
2022-09-29T00:15:25.183Z,0.00
2022-09-29T00:16:25.258Z,0.00
2022-09-29T00:17:25.229Z,0.00
2022-09-29T00:18:25.247Z,0.00
2022-09-29T00:19:25.268Z,0.00
2022-09-29T00:20:25.296Z,0.00
2022-09-29T00:21:25.314Z,0.00
2022-09-29T00:22:25.336Z,0.00
2022-09-29T00:23:25.359Z,0.00
2022-09-29T00:24:25.379Z,0.00
2022-09-29T00:25:25.404Z,0.00
2022-09-29T00:26:25.424Z,0.00
2022-09-29T00:27:25.445Z,0.00
2022-09-29T00:28:25.467Z,0.00
2022-09-29T00:29:25.492Z,0.00
2022-09-29T00:30:25.517Z,0.00
2022-09-29T00:31:25.575Z,0.00
2022-09-29T00:32:25.555Z,0.00
2022-09-29T00:33:25.577Z,0.00
2022-09-29T00:34:25.597Z,0.00
2022-09-29T00:35:25.617Z,0.00
2022-09-29T00:36:25.643Z,0.00
2022-09-29T00:37:25.664Z,0.00
2022-09-29T00:38:25.691Z,0.00
2022-09-29T00:39:25.706Z,0.00
2022-09-29T00:40:25.742Z,0.00
2022-09-29T00:41:25.749Z,0.00
2022-09-29T00:42:25.772Z,0.00
2022-09-29T00:43:25.794Z,0.00
2022-09-29T00:44:25.815Z,0.00
2022-09-29T00:45:25.913Z,0.00
2022-09-29T00:46:25.857Z,0.00
2022-09-29T00:47:25.890Z,0.00
2022-09-29T00:48:25.902Z,0.00
2022-09-29T00:49:25.920Z,0.00
2022-09-29T00:50:25.944Z,0.00
2022-09-29T00:51:25.967Z,0.00
2022-09-29T00:52:25.989Z,0.00
2022-09-29T00:53:26.007Z,0.00
2022-09-29T00:54:26.030Z,0.00
2022-09-29T00:55:26.052Z,0.00
2022-09-29T00:56:26.074Z,0.00
2022-09-29T00:57:26.095Z,0.00
2022-09-29T00:58:26.115Z,0.00
2022-09-29T00:59:26.139Z,0.00
2022-09-29T01:00:26.203Z,0.00
2022-09-29T01:01:26.398Z,0.00
2022-09-29T01:02:26.235Z,0.00
2022-09-29T01:03:26.224Z,0.00
2022-09-29T01:04:26.248Z,0.00
2022-09-29T01:05:26.273Z,0.00
2022-09-29T01:06:26.290Z,0.00
2022-09-29T01:07:26.314Z,0.00
2022-09-29T01:08:26.332Z,0.00
2022-09-29T01:09:26.358Z,0.00
2022-09-29T01:10:26.378Z,0.00
2022-09-29T01:11:26.402Z,0.00
2022-09-29T01:12:26.425Z,0.00
2022-09-29T01:13:26.443Z,0.00
2022-09-29T01:14:26.466Z,0.00
2022-09-29T01:15:26.486Z,0.00
2022-09-29T01:16:26.645Z,0.00
2022-09-29T01:17:26.531Z,0.00
2022-09-29T01:18:26.552Z,0.00
2022-09-29T01:19:26.576Z,0.00
2022-09-29T01:20:26.594Z,0.00
2022-09-29T01:21:26.617Z,0.00
2022-09-29T01:22:26.640Z,0.00
2022-09-29T01:23:26.661Z,0.00
2022-09-29T01:24:26.682Z,0.00
2022-09-29T01:25:26.704Z,0.00
2022-09-29T01:26:26.726Z,0.00
2022-09-29T01:27:26.749Z,0.00
2022-09-29T01:28:26.769Z,0.00
2022-09-29T01:29:26.787Z,0.00
2022-09-29T01:30:26.811Z,0.00
2022-09-29T01:31:26.878Z,0.00
2022-09-29T01:32:26.854Z,0.00
2022-09-29T01:33:26.877Z,0.00
2022-09-29T01:34:26.903Z,0.00
2022-09-29T01:35:26.923Z,0.00
2022-09-29T01:36:26.941Z,0.00
2022-09-29T01:37:26.974Z,0.00
2022-09-29T01:38:26.984Z,0.00
2022-09-29T01:39:27.006Z,0.00
2022-09-29T01:40:27.073Z,0.00
2022-09-29T01:41:27.050Z,0.00
2022-09-29T01:42:27.077Z,0.00
2022-09-29T01:43:27.093Z,0.00
2022-09-29T01:44:27.116Z,0.00
2022-09-29T01:45:27.164Z,0.00
2022-09-29T01:46:27.162Z,0.00
2022-09-29T01:47:27.183Z,0.00
2022-09-29T01:48:27.200Z,0.00
2022-09-29T01:49:27.224Z,0.00
2022-09-29T01:50:27.243Z,0.00
2022-09-29T01:51:27.263Z,0.00
2022-09-29T01:52:27.286Z,0.00
2022-09-29T01:53:27.307Z,0.00
2022-09-29T01:54:27.329Z,0.00
2022-09-29T01:55:27.348Z,0.00
2022-09-29T01:56:27.370Z,0.00
2022-09-29T01:57:27.393Z,0.00
2022-09-29T01:58:27.412Z,0.00
2022-09-29T01:59:27.436Z,0.00
2022-09-29T02:00:27.458Z,0.00
2022-09-29T02:01:27.477Z,0.00
2022-09-29T02:02:27.520Z,0.00
2022-09-29T02:03:27.526Z,0.00
2022-09-29T02:04:27.541Z,0.00
2022-09-29T02:05:27.562Z,0.00
2022-09-29T02:06:27.582Z,0.00
2022-09-29T02:07:27.604Z,0.00
2022-09-29T02:08:27.625Z,0.00
2022-09-29T02:09:27.646Z,0.00
2022-09-29T02:10:27.667Z,0.00
2022-09-29T02:11:27.689Z,0.00
2022-09-29T02:12:27.712Z,0.00
2022-09-29T02:13:27.731Z,0.00
2022-09-29T02:14:27.752Z,0.00
2022-09-29T02:15:27.773Z,0.00
2022-09-29T02:16:27.862Z,0.00
2022-09-29T02:17:27.815Z,0.00
2022-09-29T02:18:27.837Z,0.00
2022-09-29T02:19:27.858Z,0.00
2022-09-29T02:20:27.879Z,0.00
2022-09-29T02:21:27.912Z,0.00
2022-09-29T02:22:27.919Z,0.00
2022-09-29T02:23:27.942Z,0.00
2022-09-29T02:24:27.962Z,0.00
2022-09-29T02:25:27.984Z,0.00
2022-09-29T02:26:28.001Z,0.00
2022-09-29T02:27:28.024Z,0.00
2022-09-29T02:28:28.043Z,0.00
2022-09-29T02:29:28.066Z,0.00
2022-09-29T02:30:28.084Z,0.00
2022-09-29T02:31:28.167Z,0.00
2022-09-29T02:32:28.128Z,0.00
2022-09-29T02:33:28.149Z,0.00
2022-09-29T02:34:28.169Z,0.00
2022-09-29T02:35:28.192Z,0.00
2022-09-29T02:36:28.214Z,0.00
2022-09-29T02:37:28.239Z,0.00
2022-09-29T02:38:28.254Z,0.00
2022-09-29T02:39:28.275Z,0.00
2022-09-29T02:40:28.325Z,0.00
2022-09-29T02:41:28.322Z,0.00
2022-09-29T02:42:28.337Z,0.00
2022-09-29T02:43:28.360Z,0.00
2022-09-29T02:44:28.378Z,0.00
2022-09-29T02:45:28.471Z,0.00
2022-09-29T02:46:28.421Z,0.00
2022-09-29T02:47:28.446Z,0.00
2022-09-29T02:48:28.461Z,0.00
2022-09-29T02:49:28.483Z,0.00
2022-09-29T02:50:28.505Z,0.00
2022-09-29T02:51:28.523Z,0.00
2022-09-29T02:52:28.547Z,0.00
2022-09-29T02:53:28.569Z,0.00
2022-09-29T02:54:28.587Z,0.00
2022-09-29T02:55:28.607Z,0.00
2022-09-29T02:56:28.629Z,0.00
2022-09-29T02:57:28.648Z,0.00
2022-09-29T02:58:28.668Z,0.00
2022-09-29T02:59:28.690Z,0.00
2022-09-29T03:00:28.719Z,0.00
2022-09-29T03:01:28.731Z,0.00
2022-09-29T03:02:28.750Z,0.00
2022-09-29T03:03:28.809Z,0.00
2022-09-29T03:04:28.793Z,0.00
2022-09-29T03:05:28.813Z,0.00
2022-09-29T03:06:28.831Z,0.00
2022-09-29T03:07:28.856Z,0.00
2022-09-29T03:08:28.873Z,0.00
2022-09-29T03:09:28.895Z,0.00
2022-09-29T03:10:30.386Z,0.00
2022-09-29T03:11:28.944Z,0.00
2022-09-29T03:12:28.960Z,0.00
2022-09-29T03:13:28.977Z,0.00
2022-09-29T03:14:29.046Z,0.00
2022-09-29T03:15:29.026Z,0.00
2022-09-29T03:16:29.127Z,0.00
2022-09-29T03:17:29.063Z,0.00
2022-09-29T03:18:29.083Z,0.00
2022-09-29T03:19:29.105Z,0.00
2022-09-29T03:20:29.143Z,0.00
2022-09-29T03:21:29.147Z,0.00
2022-09-29T03:22:29.190Z,0.00
2022-09-29T03:23:29.201Z,0.00
2022-09-29T03:24:29.210Z,0.00
2022-09-29T03:25:29.238Z,0.00
2022-09-29T03:26:29.252Z,0.00
2022-09-29T03:27:29.271Z,0.00
2022-09-29T03:28:29.307Z,0.00
2022-09-29T03:29:29.323Z,0.00
2022-09-29T03:30:29.337Z,0.00
2022-09-29T03:31:29.437Z,0.00
2022-09-29T03:32:29.383Z,0.00
2022-09-29T03:33:29.394Z,0.00
2022-09-29T03:34:29.419Z,0.00
2022-09-29T03:35:29.490Z,0.00
2022-09-29T03:36:29.454Z,0.00
2022-09-29T03:37:29.476Z,0.00
2022-09-29T03:38:29.490Z,0.00
2022-09-29T03:39:29.512Z,0.00
2022-09-29T03:40:29.630Z,0.00
2022-09-29T03:41:29.574Z,0.00
2022-09-29T03:42:29.573Z,0.00
2022-09-29T03:43:29.601Z,0.00
2022-09-29T03:44:29.627Z,0.00
2022-09-29T03:45:29.664Z,0.00
2022-09-29T03:46:29.654Z,0.00
2022-09-29T03:47:29.677Z,0.00
2022-09-29T03:48:29.699Z,0.00
2022-09-29T03:49:29.714Z,0.00
2022-09-29T03:50:29.744Z,0.00
2022-09-29T03:51:29.757Z,0.00
2022-09-29T03:52:29.771Z,0.00
2022-09-29T03:53:29.800Z,0.00
2022-09-29T03:54:29.825Z,0.00
2022-09-29T03:55:29.859Z,0.00
2022-09-29T03:56:29.859Z,0.00
2022-09-29T03:57:29.900Z,0.00
2022-09-29T03:58:29.902Z,0.00
2022-09-29T03:59:29.937Z,0.00
2022-09-29T04:00:30.004Z,0.00
2022-09-29T04:01:29.958Z,0.00
2022-09-29T04:02:30.055Z,0.00
2022-09-29T04:03:30.001Z,0.00
2022-09-29T04:04:30.025Z,0.00
2022-09-29T04:05:30.036Z,0.00
2022-09-29T04:06:30.065Z,0.00
2022-09-29T04:07:30.085Z,0.00
2022-09-29T04:08:30.103Z,0.00
2022-09-29T04:09:30.122Z,0.00
2022-09-29T04:10:30.187Z,0.00
2022-09-29T04:11:30.166Z,0.00
2022-09-29T04:12:30.185Z,0.00
2022-09-29T04:13:30.211Z,0.00
2022-09-29T04:14:30.218Z,0.00
2022-09-29T04:15:30.232Z,0.00
2022-09-29T04:16:30.316Z,0.00
2022-09-29T04:17:30.279Z,0.00
2022-09-29T04:18:30.293Z,0.00
2022-09-29T04:19:30.314Z,0.00
2022-09-29T04:20:30.341Z,0.00
2022-09-29T04:21:30.359Z,0.00
2022-09-29T04:22:30.376Z,0.00
2022-09-29T04:23:30.423Z,0.00
2022-09-29T04:24:30.422Z,0.00
2022-09-29T04:25:30.443Z,0.00
2022-09-29T04:26:30.464Z,0.00
2022-09-29T04:27:30.487Z,0.00
2022-09-29T04:28:30.507Z,0.00
2022-09-29T04:29:30.539Z,0.00
2022-09-29T04:30:30.545Z,0.00
2022-09-29T04:31:30.702Z,0.00
2022-09-29T04:32:30.584Z,0.00
2022-09-29T04:33:30.641Z,0.00
2022-09-29T04:34:30.630Z,0.00
2022-09-29T04:35:34.814Z,0.00
2022-09-29T04:36:30.663Z,0.00
2022-09-29T04:37:30.679Z,0.00
2022-09-29T04:38:30.700Z,0.00
2022-09-29T04:39:30.736Z,0.00
2022-09-29T04:40:30.804Z,0.00
2022-09-29T04:41:30.760Z,0.00
2022-09-29T04:42:30.780Z,0.00
2022-09-29T04:43:30.807Z,0.00
2022-09-29T04:44:30.826Z,0.00
2022-09-29T04:45:30.901Z,0.00
2022-09-29T04:46:30.865Z,0.00
2022-09-29T04:47:30.880Z,0.00
2022-09-29T04:48:34.990Z,0.00
2022-09-29T04:49:30.960Z,0.00
2022-09-29T04:50:30.947Z,0.00
2022-09-29T04:51:30.965Z,0.00
2022-09-29T04:52:31.027Z,0.00
2022-09-29T04:53:31.019Z,4.00
2022-09-29T04:54:35.437Z,4.00
2022-09-29T04:55:31.047Z,0.00
2022-09-29T04:56:31.064Z,4.00
2022-09-29T04:57:31.091Z,4.00
2022-09-29T04:58:31.176Z,4.00
2022-09-29T04:59:31.128Z,4.00
2022-09-29T05:00:31.300Z,8.00
2022-09-29T05:01:31.163Z,12.00
2022-09-29T05:02:31.256Z,8.00
2022-09-29T05:03:31.243Z,12.00
2022-09-29T05:04:31.234Z,16.00
2022-09-29T05:05:31.282Z,20.00
2022-09-29T05:06:31.263Z,20.00
2022-09-29T05:07:31.286Z,24.00
2022-09-29T05:08:31.309Z,28.00
2022-09-29T05:09:33.846Z,32.00
2022-09-29T05:10:31.353Z,40.00
2022-09-29T05:11:31.374Z,44.00
2022-09-29T05:12:31.422Z,52.00
2022-09-29T05:13:31.403Z,64.00
2022-09-29T05:14:31.431Z,72.00
2022-09-29T05:15:31.444Z,80.00
2022-09-29T05:16:31.547Z,92.00
2022-09-29T05:17:31.501Z,104.00
2022-09-29T05:18:31.506Z,116.00
2022-09-29T05:19:31.533Z,128.00
2022-09-29T05:20:39.898Z,144.00
2022-09-29T05:21:31.562Z,160.00
2022-09-29T05:22:31.585Z,180.00
2022-09-29T05:23:31.622Z,200.00
2022-09-29T05:24:31.651Z,216.00
2022-09-29T05:25:31.641Z,240.00
2022-09-29T05:26:31.664Z,260.00
2022-09-29T05:27:31.684Z,284.00
2022-09-29T05:28:31.711Z,304.00
2022-09-29T05:29:31.740Z,328.00
2022-09-29T05:30:31.739Z,356.00
2022-09-29T05:31:31.839Z,380.00
2022-09-29T05:32:31.802Z,412.00
2022-09-29T05:33:31.827Z,440.00
2022-09-29T05:34:31.827Z,468.00
2022-09-29T05:35:31.839Z,500.00
2022-09-29T05:36:31.867Z,532.00
2022-09-29T05:37:31.901Z,564.00
2022-09-29T05:38:31.937Z,600.00
2022-09-29T05:39:31.922Z,636.00
2022-09-29T05:40:31.974Z,680.00
2022-09-29T05:41:31.966Z,720.00
2022-09-29T05:42:31.978Z,764.00
2022-09-29T05:43:32.008Z,804.00
2022-09-29T05:44:32.029Z,840.00
2022-09-29T05:45:32.098Z,884.00
2022-09-29T05:46:32.058Z,920.00
2022-09-29T05:47:32.081Z,964.00
2022-09-29T05:48:32.100Z,1000.00
2022-09-29T05:49:32.133Z,1052.00
2022-09-29T05:50:32.137Z,1100.00
2022-09-29T05:51:32.177Z,1144.00
2022-09-29T05:52:32.176Z,1188.00
2022-09-29T05:53:32.206Z,1228.00
2022-09-29T05:54:32.226Z,1264.00
2022-09-29T05:55:32.240Z,1308.00
2022-09-29T05:56:32.260Z,1344.00
2022-09-29T05:57:32.275Z,1400.00
2022-09-29T05:58:32.299Z,1464.00
2022-09-29T05:59:32.315Z,1524.00
2022-09-29T06:00:32.349Z,1580.00
2022-09-29T06:01:32.450Z,1636.00
2022-09-29T06:02:32.445Z,1696.00
2022-09-29T06:03:32.397Z,1748.00
2022-09-29T06:04:32.450Z,1800.00
2022-09-29T06:05:32.454Z,1848.00
2022-09-29T06:06:32.468Z,1896.00
2022-09-29T06:07:32.478Z,1948.00
2022-09-29T06:08:32.495Z,1992.00
2022-09-29T06:09:32.523Z,2040.00
2022-09-29T06:10:32.554Z,2092.00
2022-09-29T06:11:32.600Z,2140.00
2022-09-29T06:12:32.579Z,2184.00
2022-09-29T06:13:32.611Z,2228.00
2022-09-29T06:14:32.652Z,2284.00
2022-09-29T06:15:32.648Z,2332.00
2022-09-29T06:16:32.750Z,2380.00
2022-09-29T06:17:32.707Z,2428.00
2022-09-29T06:18:32.703Z,2464.00
2022-09-29T06:19:32.714Z,2500.00
2022-09-29T06:20:32.735Z,2536.00
2022-09-29T06:21:32.771Z,2572.00
2022-09-29T06:22:32.788Z,2628.00
2022-09-29T06:23:32.829Z,2668.00
2022-09-29T06:24:32.814Z,2716.00
2022-09-29T06:25:32.839Z,2800.00
2022-09-29T06:26:32.858Z,2808.00
2022-09-29T06:27:32.886Z,2828.00
2022-09-29T06:28:32.904Z,2868.00
2022-09-29T06:29:32.922Z,2984.00
2022-09-29T06:30:32.943Z,3128.00
2022-09-29T06:31:33.035Z,3140.00
2022-09-29T06:32:32.981Z,3080.00
2022-09-29T06:33:33.004Z,3072.00
2022-09-29T06:34:33.015Z,3112.00
2022-09-29T06:35:33.077Z,3176.00
2022-09-29T06:36:33.072Z,3160.00
2022-09-29T06:37:33.082Z,3160.00
2022-09-29T06:38:33.103Z,3204.00
2022-09-29T06:39:33.124Z,3256.00
2022-09-29T06:40:33.233Z,3300.00
2022-09-29T06:41:33.173Z,3332.00
2022-09-29T06:42:33.181Z,3352.00
2022-09-29T06:43:33.205Z,3352.00
2022-09-29T06:44:33.221Z,3348.00
2022-09-29T06:45:33.276Z,3336.00
2022-09-29T06:46:33.265Z,3324.00
2022-09-29T06:47:33.293Z,3308.00
2022-09-29T06:48:33.329Z,3300.00
2022-09-29T06:49:33.335Z,3296.00
2022-09-29T06:50:33.350Z,3320.00
2022-09-29T06:51:44.014Z,3396.00
2022-09-29T06:52:33.399Z,3504.00
2022-09-29T06:53:40.576Z,3596.00
2022-09-29T06:55:37.900Z,3744.00
2022-09-29T06:56:37.421Z,3764.00
2022-09-29T06:58:41.434Z,3772.00
2022-09-29T06:59:41.442Z,3780.00
2022-09-29T07:01:35.020Z,3864.00
2022-09-29T07:02:34.479Z,3888.00
2022-09-29T07:04:38.414Z,3888.00
2022-09-29T07:05:38.422Z,3840.00
2022-09-29T07:07:31.900Z,3764.00
2022-09-29T07:08:31.572Z,3780.00
2022-09-29T07:10:35.592Z,3888.00
2022-09-29T07:11:35.591Z,3992.00
2022-09-29T07:13:40.081Z,4116.00
2022-09-29T07:14:39.619Z,4116.00
2022-09-29T07:16:44.282Z,4076.00
2022-09-29T07:17:43.824Z,4040.00
2022-09-29T07:19:48.318Z,3960.00
2022-09-29T07:20:47.848Z,3920.00
2022-09-29T07:22:52.368Z,3940.00
2022-09-29T07:23:52.379Z,4004.00
2022-09-29T07:24:52.398Z,4060.00
2022-09-29T07:25:52.783Z,4144.00
2022-09-29T07:26:52.444Z,4208.00
2022-09-29T07:27:52.462Z,4200.00
2022-09-29T07:28:52.483Z,4152.00
2022-09-29T07:30:02.366Z,4116.00
2022-09-29T07:30:53.375Z,4048.00
2022-09-29T07:31:53.062Z,3984.00
2022-09-29T07:33:01.482Z,3924.00
2022-09-29T07:33:52.594Z,3824.00
2022-09-29T07:34:52.612Z,3760.00
2022-09-29T07:35:52.630Z,3708.00
2022-09-29T07:36:52.648Z,3672.00
2022-09-29T07:37:52.673Z,3628.00
2022-09-29T07:38:52.693Z,3592.00
2022-09-29T07:39:52.715Z,3560.00
2022-09-29T07:40:52.808Z,3512.00
2022-09-29T07:41:52.761Z,3496.00
2022-09-29T07:42:52.785Z,3480.00
2022-09-29T07:43:52.800Z,3460.00
2022-09-29T07:44:52.878Z,3452.00
2022-09-29T07:45:52.898Z,3444.00
2022-09-29T07:46:52.894Z,3428.00
2022-09-29T07:47:52.883Z,3420.00
2022-09-29T07:48:52.911Z,3408.00
2022-09-29T07:49:52.927Z,3400.00
2022-09-29T07:50:52.951Z,3408.00
2022-09-29T07:51:52.973Z,3412.00
2022-09-29T07:52:52.994Z,3404.00
2022-09-29T07:53:53.029Z,3376.00
2022-09-29T07:54:53.040Z,3356.00
2022-09-29T07:55:53.060Z,3324.00
2022-09-29T07:56:53.086Z,3288.00
2022-09-29T07:57:53.139Z,3272.00
2022-09-29T07:58:53.120Z,3276.00
2022-09-29T07:59:53.489Z,3272.00
2022-09-29T08:00:53.185Z,3280.00
2022-09-29T08:01:53.230Z,3280.00
2022-09-29T08:02:53.217Z,3264.00
2022-09-29T08:03:53.249Z,3244.00
2022-09-29T08:04:58.772Z,3236.00
2022-09-29T08:05:53.276Z,3236.00
2022-09-29T08:06:53.310Z,3224.00
2022-09-29T08:07:53.318Z,3228.00
2022-09-29T08:09:03.629Z,3216.00
2022-09-29T08:09:53.376Z,3192.00
2022-09-29T08:10:54.081Z,3184.00
2022-09-29T08:12:02.587Z,3184.00
2022-09-29T08:12:53.429Z,3180.00
2022-09-29T08:13:53.459Z,3160.00
2022-09-29T08:14:53.484Z,3128.00
2022-09-29T08:15:53.502Z,3096.00
2022-09-29T08:16:53.579Z,3092.00
2022-09-29T08:17:53.543Z,3084.00
2022-09-29T08:18:53.568Z,3072.00
2022-09-29T08:19:53.582Z,3068.00
2022-09-29T08:20:53.625Z,3064.00
2022-09-29T08:21:53.629Z,3048.00
2022-09-29T08:22:53.647Z,3052.00
2022-09-29T08:23:53.671Z,3056.00
2022-09-29T08:24:53.690Z,3068.00
2022-09-29T08:26:00.353Z,3076.00
2022-09-29T08:26:53.739Z,3088.00
2022-09-29T08:27:55.871Z,3084.00
2022-09-29T08:29:05.777Z,3088.00
2022-09-29T08:29:53.804Z,3092.00
2022-09-29T08:30:53.826Z,3088.00
2022-09-29T08:31:53.872Z,3088.00
2022-09-29T08:32:53.891Z,3100.00
2022-09-29T08:33:53.893Z,3112.00
2022-09-29T08:34:53.919Z,3116.00
2022-09-29T08:35:53.937Z,3108.00
2022-09-29T08:36:53.961Z,3104.00
2022-09-29T08:37:53.980Z,3096.00
2022-09-29T08:38:54.007Z,3084.00
2022-09-29T08:39:54.026Z,3080.00
2022-09-29T08:40:54.126Z,3072.00
2022-09-29T08:41:54.066Z,3064.00
2022-09-29T08:42:54.095Z,3068.00
2022-09-29T08:43:54.115Z,3068.00
2022-09-29T08:44:55.203Z,3080.00
2022-09-29T08:46:00.500Z,3060.00
2022-09-29T08:47:07.414Z,3040.00
2022-09-29T08:47:54.273Z,3028.00
2022-09-29T08:48:58.498Z,3020.00
2022-09-29T08:49:54.274Z,3020.00
2022-09-29T08:50:54.278Z,3020.00
2022-09-29T08:51:54.476Z,3024.00
2022-09-29T08:52:54.322Z,3016.00
2022-09-29T08:54:02.432Z,3000.00
2022-09-29T08:54:54.381Z,3000.00
2022-09-29T08:55:54.385Z,3000.00
2022-09-29T08:56:54.409Z,3012.00
2022-09-29T08:57:54.439Z,3012.00
2022-09-29T08:58:54.453Z,3004.00
2022-09-29T08:59:54.477Z,3008.00
2022-09-29T09:00:54.572Z,3016.00
2022-09-29T09:01:54.597Z,3016.00
2022-09-29T09:02:56.974Z,3008.00
2022-09-29T09:03:54.564Z,3008.00
2022-09-29T09:04:54.589Z,3004.00
2022-09-29T09:05:54.612Z,3004.00
2022-09-29T09:06:54.638Z,3016.00
2022-09-29T09:07:54.653Z,3024.00
2022-09-29T09:08:54.682Z,3028.00
2022-09-29T09:09:54.705Z,3032.00
2022-09-29T09:10:54.727Z,3044.00
2022-09-29T09:11:54.748Z,3060.00
2022-09-29T09:12:54.771Z,3084.00
2022-09-29T09:13:54.796Z,3132.00
2022-09-29T09:14:54.817Z,3176.00
2022-09-29T09:15:54.855Z,3192.00
2022-09-29T09:16:54.899Z,3168.00
2022-09-29T09:17:54.982Z,3164.00
2022-09-29T09:18:54.961Z,3160.00
2022-09-29T09:19:54.928Z,3160.00
2022-09-29T09:20:54.951Z,3144.00
2022-09-29T09:21:54.980Z,3128.00
2022-09-29T09:22:55.001Z,3108.00
2022-09-29T09:23:58.282Z,3080.00
2022-09-29T09:24:55.044Z,3052.00
2022-09-29T09:25:55.070Z,3040.00
2022-09-29T09:26:55.089Z,3044.00
2022-09-29T09:27:55.126Z,3032.00
2022-09-29T09:28:55.154Z,2968.00
2022-09-29T09:29:55.160Z,2880.00
2022-09-29T09:30:55.294Z,2900.00
2022-09-29T09:31:55.217Z,2976.00
2022-09-29T09:32:55.248Z,2984.00
2022-09-29T09:34:05.061Z,2984.00
2022-09-29T09:34:58.980Z,2992.00
2022-09-29T09:35:59.046Z,3004.00
2022-09-29T09:37:04.992Z,3032.00
2022-09-29T09:37:55.347Z,3064.00
2022-09-29T09:38:55.367Z,3068.00
2022-09-29T09:39:55.391Z,3096.00
2022-09-29T09:40:55.416Z,3104.00
2022-09-29T09:41:55.446Z,3108.00
2022-09-29T09:42:55.460Z,3096.00
2022-09-29T09:43:55.483Z,3136.00
2022-09-29T09:44:55.507Z,3248.00
2022-09-29T09:45:55.551Z,3384.00
2022-09-29T09:46:55.556Z,3412.00
2022-09-29T09:47:55.577Z,3416.00
2022-09-29T09:48:55.599Z,3432.00
2022-09-29T09:49:55.631Z,3488.00
2022-09-29T09:50:55.648Z,3448.00
2022-09-29T09:51:55.674Z,3604.00
2022-09-29T09:52:55.692Z,4000.00
2022-09-29T09:53:55.743Z,4284.00
2022-09-29T09:54:55.741Z,4572.00
2022-09-29T09:55:55.764Z,4676.00
2022-09-29T09:56:55.786Z,4660.00
2022-09-29T09:57:55.809Z,5080.00
2022-09-29T09:58:55.838Z,5440.00
2022-09-29T09:59:57.428Z,5668.00
2022-09-29T10:00:55.921Z,6096.00
2022-09-29T10:01:55.923Z,6320.00
2022-09-29T10:02:55.929Z,5756.00
2022-09-29T10:03:55.969Z,4952.00
2022-09-29T10:04:55.974Z,4404.00
2022-09-29T10:05:56.036Z,4212.00
2022-09-29T10:06:56.022Z,4148.00
2022-09-29T10:07:56.043Z,3860.00
2022-09-29T10:08:56.115Z,3864.00
2022-09-29T10:09:56.093Z,3796.00
2022-09-29T10:10:59.024Z,3892.00
2022-09-29T10:11:56.141Z,4340.00
2022-09-29T10:12:59.722Z,4752.00
2022-09-29T10:13:56.245Z,4996.00
2022-09-29T10:14:56.216Z,5140.00
2022-09-29T10:15:56.237Z,5564.00
2022-09-29T10:16:56.586Z,5892.00
2022-09-29T10:17:56.284Z,6072.00
2022-09-29T10:18:56.310Z,5960.00
2022-09-29T10:19:56.331Z,6252.00
2022-09-29T10:20:56.356Z,6844.00
2022-09-29T10:21:56.382Z,7280.00
2022-09-29T10:22:56.406Z,6960.00
2022-09-29T10:23:56.427Z,7076.00
2022-09-29T10:24:56.453Z,7620.00
2022-09-29T10:25:56.475Z,8276.00
2022-09-29T10:26:56.498Z,8028.00
2022-09-29T10:27:56.522Z,7488.00
2022-09-29T10:28:56.550Z,7644.00
2022-09-29T10:29:56.573Z,8044.00
2022-09-29T10:30:56.685Z,8860.00
2022-09-29T10:31:56.621Z,9740.00
2022-09-29T10:32:56.646Z,9536.00
2022-09-29T10:33:56.671Z,8420.00
2022-09-29T10:34:56.696Z,7476.00
2022-09-29T10:35:56.722Z,6660.00
2022-09-29T10:36:56.745Z,6280.00
2022-09-29T10:37:56.831Z,6448.00
2022-09-29T10:39:02.407Z,6824.00
2022-09-29T10:39:56.819Z,6852.00
2022-09-29T10:40:56.843Z,6492.00
2022-09-29T10:41:56.880Z,6124.00
2022-09-29T10:42:56.923Z,5984.00
2022-09-29T10:43:56.921Z,6016.00
2022-09-29T10:44:56.944Z,6164.00
2022-09-29T10:45:57.052Z,5752.00
2022-09-29T10:46:56.995Z,5408.00
2022-09-29T10:47:57.019Z,5016.00
2022-09-29T10:48:57.045Z,4648.00
2022-09-29T10:49:57.069Z,4368.00
2022-09-29T10:50:57.113Z,3920.00
2022-09-29T10:51:57.126Z,3812.00
2022-09-29T10:52:57.146Z,4052.00
2022-09-29T10:53:57.169Z,4320.00
2022-09-29T10:54:57.195Z,4504.00
2022-09-29T10:55:57.218Z,4108.00
2022-09-29T10:56:57.247Z,3692.00
2022-09-29T10:57:57.271Z,3788.00
2022-09-29T10:59:00.260Z,4268.00
2022-09-29T10:59:57.318Z,5232.00
2022-09-29T11:00:57.388Z,6396.00
2022-09-29T11:01:57.545Z,6764.00
2022-09-29T11:02:57.398Z,6468.00
2022-09-29T11:03:57.418Z,6128.00
2022-09-29T11:04:57.444Z,6208.00
2022-09-29T11:05:57.468Z,5808.00
2022-09-29T11:06:57.522Z,5440.00
2022-09-29T11:07:57.520Z,5268.00
2022-09-29T11:08:57.569Z,5464.00
2022-09-29T11:09:57.572Z,6160.00
2022-09-29T11:10:57.592Z,7432.00
2022-09-29T11:12:01.400Z,7852.00
2022-09-29T11:12:57.644Z,7788.00
2022-09-29T11:13:57.672Z,7788.00
2022-09-29T11:14:57.697Z,7912.00
2022-09-29T11:15:57.720Z,8060.00
2022-09-29T11:16:57.791Z,8264.00
2022-09-29T11:17:57.886Z,8536.00
2022-09-29T11:18:57.798Z,8868.00
2022-09-29T11:19:57.830Z,9560.00
2022-09-29T11:20:57.846Z,10112.00
2022-09-29T11:21:57.873Z,10176.00
2022-09-29T11:22:57.899Z,9792.00
2022-09-29T11:23:57.924Z,8824.00
2022-09-29T11:24:57.951Z,8144.00
2022-09-29T11:25:57.981Z,7904.00
2022-09-29T11:26:58.003Z,7420.00
2022-09-29T11:27:58.029Z,6804.00
2022-09-29T11:28:58.054Z,6408.00
2022-09-29T11:29:58.078Z,6292.00
2022-09-29T11:30:58.164Z,6380.00
2022-09-29T11:31:58.133Z,6592.00
2022-09-29T11:32:58.160Z,6712.00
2022-09-29T11:33:58.186Z,6680.00
2022-09-29T11:34:58.211Z,6296.00
2022-09-29T11:35:58.235Z,5924.00
2022-09-29T11:36:58.265Z,5636.00
2022-09-29T11:37:58.320Z,5300.00
2022-09-29T11:38:58.316Z,4992.00
2022-09-29T11:39:58.341Z,4688.00
2022-09-29T11:40:58.377Z,4608.00
2022-09-29T11:41:58.395Z,4728.00
2022-09-29T11:42:58.420Z,4404.00
2022-09-29T11:43:58.446Z,4092.00
2022-09-29T11:44:58.470Z,3796.00
2022-09-29T11:45:58.530Z,3584.00
2022-09-29T11:46:58.524Z,3464.00
2022-09-29T11:47:58.548Z,3408.00
2022-09-29T11:48:58.574Z,3356.00
2022-09-29T11:49:58.603Z,3468.00
2022-09-29T11:50:58.626Z,3528.00
2022-09-29T11:51:58.650Z,3536.00
2022-09-29T11:52:58.675Z,3560.00
2022-09-29T11:53:58.701Z,3572.00
2022-09-29T11:54:58.727Z,3644.00
2022-09-29T11:55:58.755Z,3660.00
2022-09-29T11:56:58.778Z,3860.00
2022-09-29T11:57:58.804Z,3864.00
2022-09-29T11:58:58.826Z,3924.00
2022-09-29T11:59:58.853Z,3936.00
2022-09-29T12:00:58.877Z,3900.00
2022-09-29T12:01:58.919Z,3840.00
2022-09-29T12:02:59.034Z,3732.00
2022-09-29T12:03:58.955Z,3636.00
2022-09-29T12:04:58.978Z,3644.00
2022-09-29T12:05:59.007Z,3700.00
2022-09-29T12:06:59.028Z,3780.00
2022-09-29T12:07:59.053Z,3880.00
2022-09-29T12:08:59.108Z,4044.00
2022-09-29T12:09:59.101Z,4272.00
2022-09-29T12:10:59.127Z,4532.00
2022-09-29T12:12:21.955Z,4892.00
2022-09-29T12:12:59.182Z,5276.00
2022-09-29T12:13:59.206Z,5500.00
2022-09-29T12:14:59.233Z,5696.00
2022-09-29T12:15:59.258Z,5860.00
2022-09-29T12:16:59.357Z,6052.00
2022-09-29T12:17:59.308Z,6400.00
2022-09-29T12:18:59.333Z,6860.00
2022-09-29T12:19:59.357Z,7128.00
2022-09-29T12:20:59.384Z,7340.00
2022-09-29T12:21:59.411Z,7264.00
2022-09-29T12:22:59.432Z,7208.00
2022-09-29T12:23:59.462Z,6964.00
2022-09-29T12:24:59.487Z,6608.00
2022-09-29T12:25:59.512Z,6152.00
2022-09-29T12:26:59.540Z,5596.00
2022-09-29T12:27:59.566Z,5256.00
2022-09-29T12:28:59.591Z,5056.00
2022-09-29T12:29:59.619Z,4884.00
2022-09-29T12:30:59.700Z,4636.00
2022-09-29T12:31:59.669Z,4524.00
2022-09-29T12:32:59.695Z,4508.00
2022-09-29T12:33:59.722Z,4652.00
2022-09-29T12:34:59.745Z,4724.00
2022-09-29T12:35:59.772Z,4648.00
2022-09-29T12:36:59.795Z,4500.00
2022-09-29T12:37:59.821Z,4336.00
2022-09-29T12:38:59.852Z,4252.00
2022-09-29T12:39:59.876Z,4240.00
2022-09-29T12:40:59.901Z,4288.00
2022-09-29T12:41:59.926Z,4504.00
2022-09-29T12:42:59.952Z,4776.00
2022-09-29T12:43:59.978Z,5024.00
2022-09-29T12:45:00.006Z,5252.00
2022-09-29T12:46:00.128Z,5500.00